createdAt,value
2023-05-21T00:00:40.459Z,0.00
2023-05-21T00:01:40.614Z,0.00
2023-05-21T00:02:41.079Z,0.00
2023-05-21T00:03:41.028Z,0.00
2023-05-21T00:04:40.960Z,0.00
2023-05-21T00:05:41.174Z,0.00
2023-05-21T00:06:41.256Z,0.00
2023-05-21T00:07:41.393Z,0.00
2023-05-21T00:08:41.496Z,0.00
2023-05-21T00:09:41.597Z,0.00
2023-05-21T00:10:41.709Z,0.00
2023-05-21T00:11:41.830Z,0.00
2023-05-21T00:12:42.075Z,0.00
2023-05-21T00:13:42.080Z,0.00
2023-05-21T00:14:42.128Z,0.00
2023-05-21T00:15:42.234Z,0.00
2023-05-21T00:16:42.394Z,0.00
2023-05-21T00:17:42.498Z,0.00
2023-05-21T00:18:42.681Z,0.00
2023-05-21T00:19:42.719Z,0.00
2023-05-21T00:20:42.842Z,0.00
2023-05-21T00:21:42.962Z,0.00
2023-05-21T00:22:43.094Z,0.00
2023-05-21T00:23:43.255Z,0.00
2023-05-21T00:24:43.341Z,0.00
2023-05-21T00:25:43.451Z,0.00
2023-05-21T00:26:43.553Z,0.00
2023-05-21T00:27:43.690Z,0.00
2023-05-21T00:28:43.800Z,0.00
2023-05-21T00:29:44.509Z,0.00
2023-05-21T00:30:44.081Z,0.00
2023-05-21T00:31:44.270Z,0.00
2023-05-21T00:32:44.353Z,0.00
2023-05-21T00:33:44.424Z,0.00
2023-05-21T00:34:44.600Z,0.00
2023-05-21T00:35:44.676Z,0.00
2023-05-21T00:36:44.782Z,0.00
2023-05-21T00:37:44.914Z,0.00
2023-05-21T00:38:45.030Z,0.00
2023-05-21T00:39:45.161Z,0.00
2023-05-21T00:40:45.274Z,0.00
2023-05-21T00:41:45.377Z,0.00
2023-05-21T00:42:45.489Z,0.00
2023-05-21T00:43:45.599Z,0.00
2023-05-21T00:44:45.804Z,0.00
2023-05-21T00:45:45.922Z,0.00
2023-05-21T00:46:46.030Z,0.00
2023-05-21T00:47:46.165Z,0.00
2023-05-21T00:48:46.251Z,0.00
2023-05-21T00:49:46.424Z,0.00
2023-05-21T00:50:46.502Z,0.00
2023-05-21T00:51:46.635Z,0.00
2023-05-21T00:52:46.779Z,0.00
2023-05-21T00:53:46.909Z,0.00
2023-05-21T00:54:47.063Z,0.00
2023-05-21T00:55:47.232Z,0.00
2023-05-21T00:56:47.297Z,0.00
2023-05-21T00:57:47.471Z,0.00
2023-05-21T00:58:47.557Z,0.00
2023-05-21T00:59:47.687Z,0.00
2023-05-21T01:00:47.881Z,0.00
2023-05-21T01:01:48.024Z,0.00
2023-05-21T01:02:48.176Z,0.00
2023-05-21T01:03:48.241Z,0.00
2023-05-21T01:04:48.345Z,0.00
2023-05-21T01:05:48.491Z,0.00
2023-05-21T01:06:48.590Z,0.00
2023-05-21T01:07:48.757Z,0.00
2023-05-21T01:08:48.850Z,0.00
2023-05-21T01:09:48.996Z,0.00
2023-05-21T01:10:49.164Z,0.00
2023-05-21T01:11:49.277Z,0.00
2023-05-21T01:12:49.383Z,0.00
2023-05-21T01:13:49.529Z,0.00
2023-05-21T01:14:49.682Z,0.00
2023-05-21T01:15:49.846Z,0.00
2023-05-21T01:16:49.954Z,0.00
2023-05-21T01:17:50.113Z,0.00
2023-05-21T01:18:50.290Z,0.00
2023-05-21T01:19:50.456Z,0.00
2023-05-21T01:20:50.544Z,0.00
2023-05-21T01:21:50.610Z,0.00
2023-05-21T01:22:50.769Z,0.00
2023-05-21T01:23:50.881Z,0.00
2023-05-21T01:24:51.002Z,0.00
2023-05-21T01:25:51.087Z,0.00
2023-05-21T01:26:51.214Z,0.00
2023-05-21T01:27:51.332Z,0.00
2023-05-21T01:28:51.448Z,0.00
2023-05-21T01:29:51.578Z,0.00
2023-05-21T01:30:51.685Z,0.00
2023-05-21T01:31:51.791Z,0.00
2023-05-21T01:32:52.015Z,0.00
2023-05-21T01:33:52.090Z,0.00
2023-05-21T01:34:52.191Z,0.00
2023-05-21T01:35:52.336Z,0.00
2023-05-21T01:36:52.434Z,0.00
2023-05-21T01:37:52.565Z,0.00
2023-05-21T01:38:52.711Z,0.00
2023-05-21T01:39:52.818Z,0.00
2023-05-21T01:40:52.979Z,0.00
2023-05-21T01:41:53.118Z,0.00
2023-05-21T01:42:53.170Z,0.00
2023-05-21T01:43:53.273Z,0.00
2023-05-21T01:44:53.404Z,0.00
2023-05-21T01:45:53.575Z,0.00
2023-05-21T01:46:53.671Z,0.00
2023-05-21T01:47:53.800Z,0.00
2023-05-21T01:48:53.889Z,0.00
2023-05-21T01:49:54.021Z,0.00
2023-05-21T01:50:54.146Z,0.00
2023-05-21T01:51:54.266Z,0.00
2023-05-21T01:52:54.361Z,0.00
2023-05-21T01:53:54.515Z,0.00
2023-05-21T01:54:54.639Z,0.00
2023-05-21T01:55:54.819Z,0.00
2023-05-21T01:56:54.920Z,0.00
2023-05-21T01:57:55.014Z,0.00
2023-05-21T01:58:55.169Z,0.00
2023-05-21T01:59:55.272Z,0.00
2023-05-21T02:00:55.359Z,0.00
2023-05-21T02:01:55.525Z,0.00
2023-05-21T02:02:55.666Z,0.00
2023-05-21T02:03:55.804Z,0.00
2023-05-21T02:04:55.792Z,0.00
2023-05-21T02:05:55.945Z,0.00
2023-05-21T02:06:56.062Z,0.00
2023-05-21T02:07:56.170Z,0.00
2023-05-21T02:08:56.282Z,0.00
2023-05-21T02:09:56.454Z,0.00
2023-05-21T02:10:56.570Z,0.00
2023-05-21T02:11:56.696Z,0.00
2023-05-21T02:12:56.807Z,0.00
2023-05-21T02:13:56.917Z,0.00
2023-05-21T02:14:57.024Z,0.00
2023-05-21T02:15:57.175Z,0.00
2023-05-21T02:16:57.404Z,0.00
2023-05-21T02:17:57.454Z,0.00
2023-05-21T02:18:57.639Z,0.00
2023-05-21T02:19:57.647Z,0.00
2023-05-21T02:20:57.774Z,0.00
2023-05-21T02:21:57.901Z,0.00
2023-05-21T02:22:58.026Z,0.00
2023-05-21T02:23:58.140Z,0.00
2023-05-21T02:24:58.283Z,0.00
2023-05-21T02:25:58.426Z,0.00
2023-05-21T02:26:58.576Z,0.00
2023-05-21T02:27:58.654Z,0.00
2023-05-21T02:28:58.765Z,0.00
2023-05-21T02:29:58.896Z,0.00
2023-05-21T02:30:58.974Z,0.00
2023-05-21T02:31:59.095Z,0.00
2023-05-21T02:32:59.273Z,0.00
2023-05-21T02:33:59.322Z,0.00
2023-05-21T02:34:59.443Z,0.00
2023-05-21T02:35:59.540Z,0.00
2023-05-21T02:37:00.134Z,0.00
2023-05-21T02:37:59.793Z,0.00
2023-05-21T02:38:59.927Z,0.00
2023-05-21T02:40:00.075Z,0.00
2023-05-21T02:41:00.171Z,0.00
2023-05-21T02:42:00.320Z,0.00
2023-05-21T02:43:00.383Z,0.00
2023-05-21T02:44:00.481Z,0.00
2023-05-21T02:45:00.601Z,0.00
2023-05-21T02:46:00.771Z,0.00
2023-05-21T02:47:00.862Z,0.00
2023-05-21T02:48:00.978Z,0.00
2023-05-21T02:49:01.052Z,0.00
2023-05-21T02:50:01.193Z,0.00
2023-05-21T02:51:01.334Z,0.00
2023-05-21T02:52:01.454Z,0.00
2023-05-21T02:53:01.619Z,0.00
2023-05-21T02:54:01.712Z,0.00
2023-05-21T02:55:01.823Z,0.00
2023-05-21T02:56:01.906Z,0.00
2023-05-21T02:57:02.018Z,0.00
2023-05-21T02:58:02.173Z,0.00
2023-05-21T02:59:02.237Z,0.00
2023-05-21T03:00:02.353Z,0.00
2023-05-21T03:01:02.508Z,0.00
2023-05-21T03:02:02.598Z,0.00
2023-05-21T03:03:02.884Z,0.00
2023-05-21T03:04:02.887Z,0.00
2023-05-21T03:05:02.993Z,0.00
2023-05-21T03:06:03.091Z,0.00
2023-05-21T03:07:03.199Z,0.00
2023-05-21T03:08:03.379Z,0.00
2023-05-21T03:09:03.426Z,0.00
2023-05-21T03:10:03.584Z,0.00
2023-05-21T03:11:03.723Z,0.00
2023-05-21T03:12:03.785Z,0.00
2023-05-21T03:13:03.978Z,0.00
2023-05-21T03:14:04.047Z,0.00
2023-05-21T03:15:04.152Z,0.00
2023-05-21T03:16:04.252Z,0.00
2023-05-21T03:17:04.456Z,0.00
2023-05-21T03:18:04.545Z,0.00
2023-05-21T03:19:04.706Z,0.00
2023-05-21T03:20:04.780Z,0.00
2023-05-21T03:21:04.881Z,0.00
2023-05-21T03:22:04.985Z,0.00
2023-05-21T03:23:05.136Z,0.00
2023-05-21T03:24:05.235Z,0.00
2023-05-21T03:25:05.375Z,0.00
2023-05-21T03:26:05.475Z,0.00
2023-05-21T03:27:05.588Z,0.00
2023-05-21T03:28:05.751Z,0.00
2023-05-21T03:29:05.813Z,0.00
2023-05-21T03:30:06.854Z,0.00
2023-05-21T03:31:06.064Z,0.00
2023-05-21T03:32:06.221Z,0.00
2023-05-21T03:33:06.342Z,0.00
2023-05-21T03:34:06.434Z,0.00
2023-05-21T03:35:06.770Z,0.00
2023-05-21T03:36:06.715Z,0.00
2023-05-21T03:37:06.836Z,0.00
2023-05-21T03:38:06.933Z,0.00
2023-05-21T03:39:07.113Z,0.00
2023-05-21T03:40:07.158Z,0.00
2023-05-21T03:41:07.307Z,0.00
2023-05-21T03:42:07.605Z,0.00
2023-05-21T03:43:07.612Z,0.00
2023-05-21T03:44:07.853Z,0.00
2023-05-21T03:45:07.837Z,0.00
2023-05-21T03:46:08.035Z,5.62
2023-05-21T03:47:08.195Z,5.62
2023-05-21T03:48:08.325Z,5.62
2023-05-21T03:49:08.372Z,5.62
2023-05-21T03:50:08.570Z,5.62
2023-05-21T03:51:08.631Z,5.62
2023-05-21T03:52:08.744Z,5.62
2023-05-21T03:53:08.851Z,5.62
2023-05-21T03:54:09.042Z,5.62
2023-05-21T03:55:09.137Z,11.25
2023-05-21T03:56:09.256Z,11.25
2023-05-21T03:57:09.409Z,11.25
2023-05-21T03:58:09.497Z,11.25
2023-05-21T03:59:09.650Z,11.25
2023-05-21T04:00:09.783Z,11.25
2023-05-21T04:01:09.885Z,11.25
2023-05-21T04:02:10.071Z,16.88
2023-05-21T04:03:10.206Z,16.88
2023-05-21T04:04:10.306Z,16.88
2023-05-21T04:05:10.323Z,16.88
2023-05-21T04:06:10.572Z,16.88
2023-05-21T04:07:10.575Z,16.88
2023-05-21T04:08:10.696Z,22.50
2023-05-21T04:09:10.798Z,22.50
2023-05-21T04:10:10.953Z,22.50
2023-05-21T04:11:11.052Z,22.50
2023-05-21T04:12:11.192Z,28.12
2023-05-21T04:13:11.274Z,28.12
2023-05-21T04:14:11.428Z,28.12
2023-05-21T04:15:11.529Z,28.12
2023-05-21T04:16:11.740Z,33.75
2023-05-21T04:17:11.842Z,33.75
2023-05-21T04:18:11.873Z,33.75
2023-05-21T04:19:12.126Z,33.75
2023-05-21T04:20:12.157Z,33.75
2023-05-21T04:21:12.262Z,39.38
2023-05-21T04:22:12.446Z,39.38
2023-05-21T04:23:12.599Z,39.38
2023-05-21T04:24:12.707Z,45.00
2023-05-21T04:25:12.765Z,45.00
2023-05-21T04:26:12.909Z,45.00
2023-05-21T04:27:13.006Z,50.62
2023-05-21T04:28:13.192Z,50.62
2023-05-21T04:29:13.282Z,50.62
2023-05-21T04:30:13.423Z,50.62
2023-05-21T04:31:13.592Z,50.62
2023-05-21T04:32:13.624Z,56.25
2023-05-21T04:33:13.727Z,56.25
2023-05-21T04:34:13.852Z,56.25
2023-05-21T04:35:13.970Z,56.25
2023-05-21T04:36:14.077Z,61.88
2023-05-21T04:37:14.163Z,61.88
2023-05-21T04:38:14.363Z,61.88
2023-05-21T04:39:14.446Z,67.50
2023-05-21T04:40:14.555Z,67.50
2023-05-21T04:41:14.711Z,73.12
2023-05-21T04:42:14.830Z,73.12
2023-05-21T04:43:14.938Z,73.12
2023-05-21T04:44:15.462Z,78.75
2023-05-21T04:45:15.264Z,78.75
2023-05-21T04:46:15.369Z,84.38
2023-05-21T04:47:15.557Z,84.38
2023-05-21T04:48:15.611Z,84.38
2023-05-21T04:49:15.716Z,84.38
2023-05-21T04:50:15.837Z,90.00
2023-05-21T04:51:15.993Z,90.00
2023-05-21T04:52:16.122Z,90.00
2023-05-21T04:53:16.221Z,90.00
2023-05-21T04:54:16.337Z,90.00
2023-05-21T04:55:16.441Z,90.00
2023-05-21T04:56:16.557Z,90.00
2023-05-21T04:57:16.682Z,90.00
2023-05-21T04:58:16.794Z,84.38
2023-05-21T04:59:16.977Z,84.38
2023-05-21T05:00:17.073Z,84.38
2023-05-21T05:01:17.144Z,90.00
2023-05-21T05:02:17.258Z,90.00
2023-05-21T05:03:17.517Z,90.00
2023-05-21T05:04:17.491Z,95.62
2023-05-21T05:05:17.621Z,95.62
2023-05-21T05:06:17.779Z,101.25
2023-05-21T05:07:17.883Z,106.88
2023-05-21T05:08:17.986Z,112.50
2023-05-21T05:09:18.178Z,118.12
2023-05-21T05:10:18.276Z,123.75
2023-05-21T05:11:18.417Z,129.38
2023-05-21T05:12:18.544Z,129.38
2023-05-21T05:13:18.634Z,129.38
2023-05-21T05:14:18.734Z,135.00
2023-05-21T05:15:18.866Z,140.62
2023-05-21T05:16:18.983Z,140.62
2023-05-21T05:17:19.090Z,140.62
2023-05-21T05:18:19.232Z,140.62
2023-05-21T05:19:19.374Z,140.62
2023-05-21T05:20:19.501Z,140.62
2023-05-21T05:21:19.650Z,140.62
2023-05-21T05:22:19.841Z,140.62
2023-05-21T05:23:19.891Z,146.25
2023-05-21T05:24:20.009Z,146.25
2023-05-21T05:25:20.113Z,146.25
2023-05-21T05:26:20.205Z,146.25
2023-05-21T05:27:20.315Z,146.25
2023-05-21T05:28:20.454Z,146.25
2023-05-21T05:29:20.608Z,146.25
2023-05-21T05:30:20.655Z,146.25
2023-05-21T05:31:20.818Z,146.25
2023-05-21T05:32:20.910Z,151.88
2023-05-21T05:33:21.018Z,151.88
2023-05-21T05:34:21.099Z,157.50
2023-05-21T05:35:21.236Z,157.50
2023-05-21T05:36:21.398Z,163.12
2023-05-21T05:37:21.555Z,168.75
2023-05-21T05:38:21.666Z,174.38
2023-05-21T05:39:21.770Z,174.38
2023-05-21T05:40:21.881Z,180.00
2023-05-21T05:41:21.992Z,180.00
2023-05-21T05:42:22.164Z,185.62
2023-05-21T05:43:22.247Z,185.62
2023-05-21T05:44:22.411Z,185.62
2023-05-21T05:45:22.676Z,185.62
2023-05-21T05:46:22.785Z,185.62
2023-05-21T05:47:22.824Z,185.62
2023-05-21T05:48:22.945Z,180.00
2023-05-21T05:49:23.057Z,180.00
2023-05-21T05:50:23.219Z,180.00
2023-05-21T05:51:23.379Z,185.62
2023-05-21T05:52:23.458Z,191.25
2023-05-21T05:53:23.589Z,196.88
2023-05-21T05:54:23.727Z,202.50
2023-05-21T05:55:23.837Z,208.12
2023-05-21T05:56:23.967Z,208.12
2023-05-21T05:57:24.075Z,213.75
2023-05-21T05:58:24.183Z,219.38
2023-05-21T05:59:24.440Z,225.00
2023-05-21T06:00:24.440Z,230.62
2023-05-21T06:01:24.607Z,236.25
2023-05-21T06:02:24.785Z,241.88
2023-05-21T06:03:24.997Z,247.50
2023-05-21T06:04:24.988Z,253.12
2023-05-21T06:05:25.245Z,258.75
2023-05-21T06:06:25.532Z,264.38
2023-05-21T06:07:25.413Z,275.62
2023-05-21T06:08:25.525Z,286.88
2023-05-21T06:09:25.702Z,298.12
2023-05-21T06:10:25.766Z,309.38
2023-05-21T06:11:25.911Z,315.00
2023-05-21T06:12:26.007Z,326.25
2023-05-21T06:13:26.155Z,331.88
2023-05-21T06:14:26.259Z,343.12
2023-05-21T06:15:26.355Z,343.12
2023-05-21T06:16:26.694Z,348.75
2023-05-21T06:17:26.657Z,354.38
2023-05-21T06:18:26.769Z,360.00
2023-05-21T06:19:26.938Z,360.00
2023-05-21T06:20:26.974Z,365.62
2023-05-21T06:21:27.263Z,371.25
2023-05-21T06:22:27.293Z,376.88
2023-05-21T06:23:27.392Z,388.12
2023-05-21T06:24:27.558Z,399.38
2023-05-21T06:25:27.722Z,416.25
2023-05-21T06:26:27.844Z,427.50
2023-05-21T06:27:27.895Z,433.12
2023-05-21T06:28:28.079Z,438.75
2023-05-21T06:29:28.193Z,450.00
2023-05-21T06:30:28.282Z,461.25
2023-05-21T06:31:28.422Z,466.88
2023-05-21T06:32:28.716Z,466.88
2023-05-21T06:33:28.866Z,472.50
2023-05-21T06:34:28.809Z,466.88
2023-05-21T06:35:28.976Z,472.50
2023-05-21T06:36:29.051Z,478.12
2023-05-21T06:37:29.185Z,483.75
2023-05-21T06:38:29.293Z,500.62
2023-05-21T06:39:29.391Z,506.25
2023-05-21T06:40:29.548Z,506.25
2023-05-21T06:41:29.636Z,511.88
2023-05-21T06:42:29.791Z,511.88
2023-05-21T06:43:29.915Z,500.62
2023-05-21T06:44:29.975Z,500.62
2023-05-21T06:45:31.710Z,495.00
2023-05-21T06:46:30.272Z,495.00
2023-05-21T06:47:30.350Z,489.38
2023-05-21T06:48:30.498Z,472.50
2023-05-21T06:49:30.534Z,478.12
2023-05-21T06:50:30.661Z,461.25
2023-05-21T06:51:30.790Z,483.75
2023-05-21T06:52:30.902Z,483.75
2023-05-21T06:53:31.031Z,483.75
2023-05-21T06:54:31.251Z,472.50
2023-05-21T06:55:31.248Z,461.25
2023-05-21T06:56:31.397Z,466.88
2023-05-21T06:57:31.497Z,466.88
2023-05-21T06:58:31.589Z,466.88
2023-05-21T06:59:31.728Z,472.50
2023-05-21T07:00:31.887Z,478.12
2023-05-21T07:01:32.025Z,489.38
2023-05-21T07:02:32.262Z,489.38
2023-05-21T07:03:32.490Z,489.38
2023-05-21T07:04:32.459Z,489.38
2023-05-21T07:05:32.515Z,489.38
2023-05-21T07:06:32.611Z,483.75
2023-05-21T07:07:32.742Z,489.38
2023-05-21T07:08:32.846Z,489.38
2023-05-21T07:09:32.978Z,489.38
2023-05-21T07:10:33.131Z,495.00
2023-05-21T07:11:33.217Z,500.62
2023-05-21T07:12:33.372Z,500.62
2023-05-21T07:13:33.463Z,506.25
2023-05-21T07:14:33.672Z,523.12
2023-05-21T07:15:33.778Z,523.12
2023-05-21T07:16:33.890Z,528.75
2023-05-21T07:17:34.195Z,528.75
2023-05-21T07:18:34.143Z,534.38
2023-05-21T07:19:34.274Z,540.00
2023-05-21T07:20:34.380Z,551.25
2023-05-21T07:21:34.462Z,562.50
2023-05-21T07:22:34.559Z,579.38
2023-05-21T07:23:34.755Z,590.62
2023-05-21T07:24:34.836Z,590.62
2023-05-21T07:25:35.300Z,596.25
2023-05-21T07:26:35.075Z,607.50
2023-05-21T07:27:35.181Z,624.38
2023-05-21T07:28:35.331Z,624.38
2023-05-21T07:29:35.448Z,646.88
2023-05-21T07:30:35.571Z,680.62
2023-05-21T07:31:35.747Z,691.88
2023-05-21T07:32:35.880Z,720.00
2023-05-21T07:33:35.900Z,703.12
2023-05-21T07:34:36.002Z,736.88
2023-05-21T07:35:36.424Z,720.00
2023-05-21T07:36:36.291Z,725.62
2023-05-21T07:37:36.427Z,720.00
2023-05-21T07:38:36.509Z,703.12
2023-05-21T07:39:36.600Z,663.75
2023-05-21T07:40:36.767Z,686.25
2023-05-21T07:41:36.922Z,686.25
2023-05-21T07:42:37.026Z,680.62
2023-05-21T07:43:37.140Z,703.12
2023-05-21T07:44:37.281Z,675.00
2023-05-21T07:45:37.837Z,708.75
2023-05-21T07:46:37.547Z,697.50
2023-05-21T07:47:37.671Z,691.88
2023-05-21T07:48:37.763Z,703.12
2023-05-21T07:49:37.906Z,635.62
2023-05-21T07:50:38.003Z,635.62
2023-05-21T07:51:38.110Z,703.12
2023-05-21T07:52:38.327Z,731.25
2023-05-21T07:53:38.454Z,736.88
2023-05-21T07:54:38.560Z,736.88
2023-05-21T07:55:38.783Z,708.75
2023-05-21T07:56:38.774Z,686.25
2023-05-21T07:57:38.963Z,714.38
2023-05-21T07:58:39.064Z,714.38
2023-05-21T07:59:39.224Z,675.00
2023-05-21T08:00:39.340Z,703.12
2023-05-21T08:01:39.450Z,725.62
2023-05-21T08:02:39.645Z,787.50
2023-05-21T08:03:39.831Z,742.50
2023-05-21T08:04:41.304Z,810.00
2023-05-21T08:05:39.963Z,832.50
2023-05-21T08:06:40.050Z,838.12
2023-05-21T08:07:40.221Z,843.75
2023-05-21T08:08:40.297Z,855.00
2023-05-21T08:09:40.414Z,838.12
2023-05-21T08:10:40.522Z,798.75
2023-05-21T08:11:40.666Z,804.38
2023-05-21T08:12:40.865Z,770.62
2023-05-21T08:13:40.956Z,787.50
2023-05-21T08:14:41.067Z,759.38
2023-05-21T08:15:41.155Z,759.38
2023-05-21T08:16:41.358Z,725.62
2023-05-21T08:17:41.560Z,770.62
2023-05-21T08:18:41.602Z,945.00
2023-05-21T08:19:41.698Z,1378.12
2023-05-21T08:20:41.790Z,1468.12
2023-05-21T08:21:41.951Z,1350.00
2023-05-21T08:22:42.048Z,1141.88
2023-05-21T08:23:42.216Z,1141.88
2023-05-21T08:24:42.274Z,1023.75
2023-05-21T08:25:42.366Z,911.25
2023-05-21T08:26:42.510Z,1035.00
2023-05-21T08:27:42.663Z,956.25
2023-05-21T08:28:42.802Z,911.25
2023-05-21T08:29:42.903Z,978.75
2023-05-21T08:30:42.948Z,905.62
2023-05-21T08:31:43.110Z,871.88
2023-05-21T08:32:43.224Z,798.75
2023-05-21T08:33:43.449Z,753.75
2023-05-21T08:34:43.744Z,781.88
2023-05-21T08:35:43.655Z,945.00
2023-05-21T08:36:43.630Z,832.50
2023-05-21T08:37:43.931Z,939.38
2023-05-21T08:38:43.991Z,1108.12
2023-05-21T08:39:43.971Z,1231.88
2023-05-21T08:40:44.083Z,1288.12
2023-05-21T08:41:44.201Z,1237.50
2023-05-21T08:42:44.295Z,1299.38
2023-05-21T08:43:44.445Z,1355.62
2023-05-21T08:44:44.622Z,1406.25
2023-05-21T08:45:44.793Z,1507.50
2023-05-21T08:46:44.971Z,1473.75
2023-05-21T08:47:45.023Z,1395.00
2023-05-21T08:48:45.309Z,1428.75
2023-05-21T08:49:45.223Z,1440.00
2023-05-21T08:50:45.890Z,1186.88
2023-05-21T08:51:45.984Z,961.88
2023-05-21T08:52:45.690Z,1338.75
2023-05-21T08:53:45.880Z,1440.00
2023-05-21T08:54:45.928Z,1434.38
2023-05-21T08:55:46.180Z,1130.62
2023-05-21T08:56:46.163Z,1215.00
2023-05-21T08:57:46.775Z,1119.38
2023-05-21T08:58:46.547Z,1063.12
2023-05-21T08:59:46.520Z,1440.00
2023-05-21T09:00:46.741Z,1552.50
2023-05-21T09:01:46.833Z,1653.75
2023-05-21T09:02:46.984Z,1653.75
2023-05-21T09:03:47.111Z,1479.38
2023-05-21T09:04:47.115Z,1535.62
2023-05-21T09:05:47.649Z,1428.75
2023-05-21T09:06:47.316Z,1411.88
2023-05-21T09:07:47.462Z,1310.62
2023-05-21T09:08:47.874Z,1231.88
2023-05-21T09:09:47.758Z,1192.50
2023-05-21T09:10:47.813Z,1220.62
2023-05-21T09:11:48.123Z,1693.12
2023-05-21T09:12:48.185Z,1704.38
2023-05-21T09:13:48.142Z,1614.38
2023-05-21T09:14:48.470Z,1603.12
2023-05-21T09:15:48.511Z,1625.62
2023-05-21T09:16:48.977Z,1648.12
2023-05-21T09:17:48.944Z,1670.62
2023-05-21T09:18:49.152Z,1586.25
2023-05-21T09:19:48.960Z,1479.38
2023-05-21T09:20:49.019Z,1068.75
2023-05-21T09:21:49.412Z,1147.50
2023-05-21T09:22:49.418Z,1029.38
2023-05-21T09:23:49.458Z,1254.38
2023-05-21T09:24:49.544Z,1333.12
2023-05-21T09:25:49.722Z,1575.00
2023-05-21T09:26:49.878Z,1586.25
2023-05-21T09:27:50.065Z,1620.00
2023-05-21T09:28:50.230Z,1276.88
2023-05-21T09:29:50.220Z,1153.12
2023-05-21T09:30:50.343Z,1732.50
2023-05-21T09:31:50.724Z,2171.25
2023-05-21T09:32:50.770Z,1513.12
2023-05-21T09:33:50.702Z,2210.62
2023-05-21T09:34:50.829Z,2148.75
2023-05-21T09:35:50.948Z,1974.38
2023-05-21T09:36:51.128Z,1372.50
2023-05-21T09:37:51.218Z,1726.88
2023-05-21T09:38:51.326Z,2041.88
2023-05-21T09:39:51.426Z,2233.12
2023-05-21T09:40:51.612Z,1822.50
2023-05-21T09:41:51.735Z,2131.88
2023-05-21T09:42:51.859Z,2283.75
2023-05-21T09:43:51.972Z,2345.62
2023-05-21T09:44:52.091Z,2311.88
2023-05-21T09:45:52.281Z,1884.38
2023-05-21T09:46:52.504Z,2334.38
2023-05-21T09:47:52.460Z,2272.50
2023-05-21T09:48:52.552Z,978.75
2023-05-21T09:49:52.654Z,939.38
2023-05-21T09:50:52.772Z,1710.00
2023-05-21T09:51:52.893Z,1749.38
2023-05-21T09:52:53.160Z,1676.25
2023-05-21T09:53:53.121Z,1344.38
2023-05-21T09:54:53.238Z,1018.12
2023-05-21T09:55:53.328Z,1496.25
2023-05-21T09:56:53.503Z,1164.38
2023-05-21T09:57:53.639Z,1186.88
2023-05-21T09:58:53.731Z,1338.75
2023-05-21T09:59:53.830Z,1575.00
2023-05-21T10:00:53.934Z,2238.75
2023-05-21T10:01:54.130Z,2441.25
2023-05-21T10:02:54.281Z,2188.12
2023-05-21T10:03:54.340Z,2497.50
2023-05-21T10:04:54.514Z,1209.38
2023-05-21T10:05:54.536Z,1153.12
2023-05-21T10:06:54.622Z,1631.25
2023-05-21T10:07:54.824Z,1755.00
2023-05-21T10:08:55.058Z,1288.12
2023-05-21T10:09:55.080Z,1648.12
2023-05-21T10:10:55.171Z,1985.62
2023-05-21T10:11:55.263Z,2328.75
2023-05-21T10:12:55.479Z,2525.62
2023-05-21T10:13:55.564Z,2362.50
2023-05-21T10:14:55.726Z,2424.38
2023-05-21T10:15:55.886Z,2058.75
2023-05-21T10:16:55.956Z,1738.12
2023-05-21T10:17:56.136Z,1383.75
2023-05-21T10:18:56.302Z,1209.38
2023-05-21T10:19:56.328Z,1856.25
2023-05-21T10:20:56.432Z,1833.75
2023-05-21T10:21:56.539Z,1473.75
2023-05-21T10:22:56.665Z,1338.75
2023-05-21T10:23:56.809Z,1693.12
2023-05-21T10:24:56.899Z,1558.12
2023-05-21T10:25:57.031Z,1591.88
2023-05-21T10:26:57.185Z,1833.75
2023-05-21T10:27:57.318Z,1693.12
2023-05-21T10:28:57.678Z,1901.25
2023-05-21T10:29:57.532Z,2013.75
2023-05-21T10:30:57.714Z,2120.62
2023-05-21T10:31:57.843Z,2160.00
2023-05-21T10:32:58.164Z,1693.12
2023-05-21T10:33:58.091Z,1974.38
2023-05-21T10:34:59.415Z,2081.25
2023-05-21T10:35:58.264Z,1400.62
2023-05-21T10:36:58.457Z,1800.00
2023-05-21T10:37:58.619Z,1839.38
2023-05-21T10:38:58.761Z,2036.25
2023-05-21T10:39:58.806Z,1423.12
2023-05-21T10:40:58.922Z,1361.25
2023-05-21T10:41:59.327Z,1293.75
2023-05-21T10:42:59.178Z,1231.88
2023-05-21T10:43:59.376Z,1293.75
2023-05-21T10:44:59.469Z,1642.50
2023-05-21T10:45:59.596Z,1428.75
2023-05-21T10:46:59.710Z,1580.62
2023-05-21T10:47:59.854Z,1698.75
2023-05-21T10:49:00.033Z,1771.88
2023-05-21T10:50:00.050Z,2053.12
2023-05-21T10:51:00.149Z,1985.62
2023-05-21T10:52:00.278Z,1878.75
2023-05-21T10:53:00.386Z,1878.75
2023-05-21T10:54:00.493Z,1833.75
2023-05-21T10:55:00.632Z,1541.25
2023-05-21T10:56:00.782Z,1333.12
2023-05-21T10:57:00.901Z,1091.25
2023-05-21T10:58:01.028Z,1344.38
2023-05-21T10:59:01.116Z,1170.00
2023-05-21T11:00:01.217Z,1254.38
2023-05-21T11:01:01.361Z,1417.50
2023-05-21T11:02:01.514Z,1456.88
2023-05-21T11:03:01.652Z,1535.62
2023-05-21T11:04:01.723Z,1518.75
2023-05-21T11:05:01.850Z,1417.50
2023-05-21T11:06:02.010Z,1383.75
2023-05-21T11:07:02.120Z,1299.38
2023-05-21T11:08:02.284Z,1316.25
2023-05-21T11:09:02.411Z,1276.88
2023-05-21T11:10:02.512Z,967.50
2023-05-21T11:11:02.649Z,871.88
2023-05-21T11:12:02.756Z,900.00
2023-05-21T11:13:02.853Z,1136.25
2023-05-21T11:14:02.987Z,1220.62
2023-05-21T11:15:03.089Z,1524.38
2023-05-21T11:16:03.213Z,1440.00
2023-05-21T11:17:03.423Z,1507.50
2023-05-21T11:18:03.532Z,1963.12
2023-05-21T11:19:03.676Z,1923.75
2023-05-21T11:20:03.734Z,2188.12
2023-05-21T11:21:03.943Z,2070.00
2023-05-21T11:22:03.990Z,2075.62
2023-05-21T11:23:04.081Z,2103.75
2023-05-21T11:24:04.172Z,2160.00
2023-05-21T11:25:04.274Z,1580.62
2023-05-21T11:26:04.439Z,1811.25
2023-05-21T11:27:04.527Z,1603.12
2023-05-21T11:28:04.708Z,1411.88
2023-05-21T11:29:04.843Z,1321.88
2023-05-21T11:30:04.895Z,1136.25
2023-05-21T11:31:05.027Z,1260.00
2023-05-21T11:32:05.194Z,1231.88
2023-05-21T11:33:05.302Z,1175.62
2023-05-21T11:34:05.423Z,1338.75
2023-05-21T11:35:05.575Z,1507.50
2023-05-21T11:36:05.710Z,1046.25
2023-05-21T11:37:05.881Z,900.00
2023-05-21T11:38:06.026Z,1569.38
2023-05-21T11:39:06.120Z,900.00
2023-05-21T11:40:06.218Z,894.38
2023-05-21T11:41:06.390Z,1040.62
2023-05-21T11:42:06.507Z,1653.75
2023-05-21T11:43:06.687Z,1653.75
2023-05-21T11:44:06.740Z,1704.38
2023-05-21T11:45:06.896Z,1642.50
2023-05-21T11:46:07.054Z,1485.00
2023-05-21T11:47:07.203Z,1305.00
2023-05-21T11:48:07.356Z,1164.38
2023-05-21T11:49:07.497Z,1080.00
2023-05-21T11:50:07.565Z,973.12
2023-05-21T11:51:07.702Z,1001.25
2023-05-21T11:52:07.884Z,995.62
2023-05-21T11:53:08.013Z,1091.25
2023-05-21T11:54:08.092Z,1091.25
2023-05-21T11:55:08.242Z,1237.50
2023-05-21T11:56:08.380Z,1243.12
2023-05-21T11:57:08.542Z,1361.25
2023-05-21T11:58:08.687Z,1383.75
2023-05-21T11:59:08.788Z,1597.50
2023-05-21T12:00:08.920Z,1603.12
2023-05-21T12:01:09.050Z,2103.75
2023-05-21T12:02:09.220Z,1743.75
2023-05-21T12:03:09.383Z,1080.00
2023-05-21T12:04:09.494Z,1203.75
2023-05-21T12:05:10.243Z,1096.88
2023-05-21T12:06:09.767Z,1023.75
2023-05-21T12:07:09.836Z,1006.88
2023-05-21T12:08:10.024Z,1040.62
2023-05-21T12:09:10.094Z,1271.25
2023-05-21T12:10:10.199Z,1068.75
2023-05-21T12:11:10.337Z,1125.00
2023-05-21T12:12:10.528Z,939.38
2023-05-21T12:13:10.598Z,922.50
2023-05-21T12:14:10.825Z,933.75
2023-05-21T12:15:11.469Z,1051.88
2023-05-21T12:16:10.992Z,1361.25
2023-05-21T12:17:11.134Z,1822.50
2023-05-21T12:18:11.403Z,1597.50
2023-05-21T12:19:11.381Z,2244.38
2023-05-21T12:20:11.503Z,2649.38
2023-05-21T12:21:12.690Z,2694.38
2023-05-21T12:22:11.752Z,3183.75
2023-05-21T12:23:11.961Z,3195.00
2023-05-21T12:24:12.028Z,3009.38
2023-05-21T12:25:12.161Z,2986.88
2023-05-21T12:26:12.314Z,3043.12
2023-05-21T12:27:12.402Z,2857.50
2023-05-21T12:28:12.534Z,2295.00
2023-05-21T12:29:12.688Z,2171.25
2023-05-21T12:30:12.853Z,2148.75
2023-05-21T12:31:12.924Z,1710.00
2023-05-21T12:32:13.086Z,1648.12
2023-05-21T12:33:13.154Z,1378.12
2023-05-21T12:34:13.354Z,1158.75
2023-05-21T12:35:13.473Z,866.25
2023-05-21T12:36:13.582Z,1220.62
2023-05-21T12:37:13.736Z,1220.62
2023-05-21T12:38:13.836Z,1158.75
2023-05-21T12:39:14.000Z,1305.00
2023-05-21T12:40:14.088Z,1248.75